createdAt,value
2022-10-05T00:00:47.313Z,100.00
2022-10-05T00:05:50.860Z,100.00
2022-10-05T00:10:55.198Z,100.00
2022-10-05T00:16:01.117Z,99.93
2022-10-05T00:21:10.116Z,100.00
2022-10-05T00:26:20.732Z,100.00
2022-10-05T00:31:26.741Z,100.00
2022-10-05T00:36:29.749Z,100.00
2022-10-05T00:41:45.785Z,100.00
2022-10-05T00:46:57.657Z,100.00
2022-10-05T00:52:09.475Z,100.00
2022-10-05T00:57:28.502Z,100.00
2022-10-05T01:02:45.074Z,100.00
2022-10-05T01:07:56.472Z,100.00
2022-10-05T01:13:09.030Z,100.00
2022-10-05T01:18:19.460Z,100.00
2022-10-05T01:24:01.913Z,100.00
2022-10-05T01:29:12.232Z,100.00
2022-10-05T01:34:28.947Z,100.00
2022-10-05T01:39:44.029Z,100.00
2022-10-05T01:44:57.956Z,100.00
2022-10-05T01:50:04.666Z,100.00
2022-10-05T01:55:19.896Z,100.00
2022-10-05T02:00:24.532Z,100.00
2022-10-05T02:05:32.254Z,100.00
2022-10-05T02:10:39.746Z,100.00
2022-10-05T02:15:47.857Z,100.00
2022-10-05T02:20:52.378Z,100.00
2022-10-05T02:25:57.468Z,100.00
2022-10-05T02:31:08.120Z,100.00
2022-10-05T02:36:15.947Z,100.00
2022-10-05T02:41:31.516Z,100.00
2022-10-05T02:46:43.029Z,100.00
2022-10-05T02:51:52.862Z,100.00
2022-10-05T02:57:01.581Z,100.00
2022-10-05T03:02:16.064Z,100.00
2022-10-05T03:07:25.075Z,100.00
2022-10-05T03:12:51.929Z,100.00
2022-10-05T03:18:11.686Z,100.00
2022-10-05T03:23:25.839Z,100.00
2022-10-05T03:28:36.778Z,100.00
2022-10-05T03:33:48.324Z,100.00
2022-10-05T03:39:03.007Z,100.00
2022-10-05T03:44:18.652Z,100.00
2022-10-05T03:49:33.171Z,100.00
2022-10-05T03:54:40.474Z,100.00
2022-10-05T03:59:53.750Z,100.00
2022-10-05T04:05:04.083Z,99.24
2022-10-05T04:10:15.785Z,98.78
2022-10-05T04:15:24.687Z,98.74
2022-10-05T04:20:35.645Z,98.55
2022-10-05T04:25:45.396Z,98.68
2022-10-05T04:30:51.672Z,98.86
2022-10-05T04:36:09.634Z,98.76
2022-10-05T04:41:26.529Z,98.96
2022-10-05T04:46:43.944Z,99.15
2022-10-05T04:51:59.208Z,98.66
2022-10-05T04:57:06.870Z,98.39
2022-10-05T05:02:23.548Z,97.93
2022-10-05T05:07:41.590Z,98.36
2022-10-05T05:12:58.915Z,97.87
2022-10-05T05:18:34.183Z,98.31
2022-10-05T05:23:45.509Z,98.37
2022-10-05T05:28:55.664Z,98.77
2022-10-05T05:34:06.177Z,98.68
2022-10-05T05:39:28.185Z,98.40
2022-10-05T05:44:39.065Z,98.19
2022-10-05T05:49:53.539Z,98.36
2022-10-05T05:55:06.031Z,98.06
2022-10-05T06:00:20.221Z,98.18
2022-10-05T06:05:34.321Z,98.31
2022-10-05T06:10:46.796Z,98.93
2022-10-05T06:15:55.262Z,99.19
2022-10-05T06:21:03.483Z,98.90
2022-10-05T06:26:18.506Z,99.63
2022-10-05T06:31:36.705Z,99.69
2022-10-05T06:36:45.573Z,99.32
2022-10-05T06:42:07.281Z,99.86
2022-10-05T06:47:51.589Z,99.08
2022-10-05T06:53:28.568Z,98.98
2022-10-05T06:58:49.528Z,98.50
2022-10-05T07:04:09.543Z,97.97
2022-10-05T07:09:26.877Z,98.14
2022-10-05T07:14:49.289Z,98.83
2022-10-05T07:20:04.089Z,98.57
2022-10-05T07:25:14.728Z,98.31
2022-10-05T07:30:21.572Z,98.31
2022-10-05T07:35:51.717Z,98.51
2022-10-05T07:41:00.220Z,98.73
2022-10-05T07:46:14.490Z,98.74
2022-10-05T07:51:28.668Z,98.65
2022-10-05T07:56:39.130Z,98.39
2022-10-05T08:01:48.529Z,98.08
2022-10-05T08:06:56.521Z,98.51
2022-10-05T08:12:09.051Z,98.31
2022-10-05T08:17:25.495Z,97.96
2022-10-05T08:22:35.786Z,97.98
2022-10-05T08:27:47.306Z,97.20
2022-10-05T08:32:57.826Z,96.97
2022-10-05T08:38:03.798Z,96.42
2022-10-05T08:43:36.403Z,96.49
2022-10-05T08:49:05.534Z,96.47
2022-10-05T08:54:32.029Z,95.18
2022-10-05T09:00:03.198Z,96.11
2022-10-05T09:05:34.295Z,95.81
2022-10-05T09:11:16.221Z,94.85
2022-10-05T09:16:37.486Z,94.54
2022-10-05T09:21:53.199Z,94.44
2022-10-05T09:27:03.429Z,94.75
2022-10-05T09:32:32.892Z,94.72
2022-10-05T09:38:10.108Z,94.50
2022-10-05T09:43:42.651Z,94.41
2022-10-05T09:49:18.483Z,93.22
2022-10-05T09:54:53.230Z,93.97
2022-10-05T10:00:21.662Z,93.27
2022-10-05T10:05:39.268Z,93.68
2022-10-05T10:11:01.515Z,92.57
2022-10-05T10:16:31.262Z,93.19
2022-10-05T10:22:12.577Z,93.10
2022-10-05T10:27:34.856Z,93.62
2022-10-05T10:33:20.021Z,94.21
2022-10-05T10:38:31.606Z,93.53
2022-10-05T10:43:51.134Z,93.55
2022-10-05T10:49:01.882Z,92.58
2022-10-05T10:54:30.098Z,91.85
2022-10-05T11:00:07.109Z,92.67
2022-10-05T11:05:32.616Z,89.71
2022-10-05T11:11:11.956Z,89.13
2022-10-05T11:16:47.595Z,89.71
2022-10-05T11:22:04.751Z,89.67
2022-10-05T11:27:17.518Z,88.25
2022-10-05T11:32:33.573Z,87.21
2022-10-05T11:37:49.880Z,87.03
2022-10-05T11:43:23.370Z,87.09
2022-10-05T11:48:42.361Z,87.36
2022-10-05T11:53:57.568Z,85.28
2022-10-05T11:59:08.783Z,85.72
2022-10-05T12:04:21.213Z,87.08
2022-10-05T12:10:04.875Z,86.00
2022-10-05T12:15:20.055Z,85.88
2022-10-05T12:20:29.482Z,85.94
2022-10-05T12:25:35.359Z,86.35
2022-10-05T12:31:01.194Z,85.85
2022-10-05T12:36:12.842Z,86.02
2022-10-05T12:41:22.200Z,87.53
2022-10-05T12:46:32.774Z,86.23
2022-10-05T12:51:44.491Z,87.16
2022-10-05T12:56:54.959Z,87.69
2022-10-05T13:02:08.675Z,86.47
2022-10-05T13:07:35.236Z,87.19
2022-10-05T13:12:50.009Z,85.93
2022-10-05T13:18:05.831Z,85.33
2022-10-05T13:23:17.555Z,86.91
2022-10-05T13:28:31.202Z,85.47
2022-10-05T13:33:55.111Z,83.32
2022-10-05T13:39:04.604Z,84.76
2022-10-05T13:44:19.451Z,83.98
2022-10-05T13:49:28.980Z,83.75
2022-10-05T13:54:43.026Z,84.79
2022-10-05T13:59:54.418Z,83.05
2022-10-05T14:05:02.029Z,80.83
2022-10-05T14:10:13.952Z,82.34
2022-10-05T14:15:23.029Z,83.52
2022-10-05T14:20:29.284Z,85.22
2022-10-05T14:25:50.241Z,83.88
2022-10-05T14:30:59.264Z,84.27
2022-10-05T14:36:02.691Z,86.28
2022-10-05T14:41:18.209Z,83.91
2022-10-05T14:46:27.173Z,85.38
2022-10-05T14:51:33.101Z,87.14
2022-10-05T14:56:50.718Z,86.55
2022-10-05T15:01:59.430Z,86.69
2022-10-05T15:07:14.681Z,87.39
2022-10-05T15:12:26.137Z,87.63
2022-10-05T15:17:37.846Z,86.76
2022-10-05T15:22:51.252Z,87.03
2022-10-05T15:28:12.548Z,86.95
2022-10-05T15:33:23.932Z,86.05
2022-10-05T15:38:32.424Z,85.64
2022-10-05T15:43:47.341Z,86.41
2022-10-05T15:49:01.853Z,86.79
2022-10-05T15:54:26.404Z,87.44
2022-10-05T15:59:40.423Z,87.38
2022-10-05T16:04:52.241Z,87.53
2022-10-05T16:10:01.241Z,88.29
2022-10-05T16:15:21.762Z,87.27
2022-10-05T16:20:36.883Z,88.80
2022-10-05T16:25:54.910Z,88.00
2022-10-05T16:31:07.221Z,88.59
2022-10-05T16:36:22.806Z,89.13
2022-10-05T16:41:34.994Z,89.58
2022-10-05T16:46:46.836Z,89.09
2022-10-05T16:51:57.553Z,90.16
2022-10-05T16:57:08.324Z,90.11
2022-10-05T17:02:24.972Z,90.29
2022-10-05T17:07:55.806Z,90.61
2022-10-05T17:13:07.096Z,91.33
2022-10-05T17:18:31.937Z,91.27
2022-10-05T17:23:51.416Z,91.67
2022-10-05T17:29:01.928Z,91.83
2022-10-05T17:34:26.623Z,92.25
2022-10-05T17:39:54.050Z,91.93
2022-10-05T17:45:00.033Z,92.01
2022-10-05T17:50:31.229Z,92.18
2022-10-05T17:55:46.943Z,92.28
2022-10-05T18:01:07.163Z,92.61
2022-10-05T18:06:32.066Z,92.29
2022-10-05T18:11:42.037Z,92.80
2022-10-05T18:16:58.279Z,93.06
2022-10-05T18:22:10.947Z,93.15
2022-10-05T18:27:40.180Z,93.63
2022-10-05T18:33:14.289Z,93.76
2022-10-05T18:38:32.716Z,93.79
2022-10-05T18:43:42.684Z,93.99
2022-10-05T18:48:54.184Z,94.34
2022-10-05T18:54:11.168Z,94.99
2022-10-05T18:59:40.540Z,94.75
2022-10-05T19:05:01.004Z,96.15
2022-10-05T19:10:14.903Z,95.26
2022-10-05T19:15:26.433Z,96.45
2022-10-05T19:20:37.347Z,99.26
2022-10-05T19:25:49.407Z,100.00
2022-10-05T19:31:06.210Z,100.00
2022-10-05T19:36:24.534Z,100.00
2022-10-05T19:41:38.388Z,100.00
2022-10-05T19:47:04.818Z,100.00
2022-10-05T19:52:14.361Z,100.00
2022-10-05T19:57:18.914Z,100.00
2022-10-05T20:02:26.912Z,100.00
2022-10-05T20:07:29.939Z,100.00
2022-10-05T20:12:55.892Z,85.97
2022-10-05T20:18:16.189Z,92.91
2022-10-05T20:23:23.616Z,99.16
2022-10-05T20:28:34.249Z,100.00
2022-10-05T20:33:37.273Z,100.00
2022-10-05T20:38:41.347Z,100.00
2022-10-05T20:43:45.768Z,100.00
2022-10-05T20:48:48.867Z,100.00
2022-10-05T20:53:51.835Z,100.00
2022-10-05T20:58:56.235Z,100.00
2022-10-05T21:03:59.911Z,100.00
2022-10-05T21:09:03.357Z,100.00
2022-10-05T21:14:07.803Z,100.00
2022-10-05T21:19:13.150Z,100.00
2022-10-05T21:24:17.369Z,100.00
2022-10-05T21:29:22.189Z,100.00
2022-10-05T21:34:25.224Z,100.00
2022-10-05T21:39:28.072Z,100.00
2022-10-05T21:44:32.896Z,100.00
2022-10-05T21:49:37.253Z,100.00
2022-10-05T21:54:40.345Z,100.00
2022-10-05T21:59:45.417Z,100.00
2022-10-05T22:04:48.470Z,100.00
2022-10-05T22:09:52.233Z,100.00
2022-10-05T22:14:56.438Z,100.00
2022-10-05T22:20:00.374Z,100.00
2022-10-05T22:25:03.544Z,100.00
2022-10-05T22:30:09.458Z,100.00
2022-10-05T22:35:12.463Z,100.00
2022-10-05T22:40:15.498Z,100.00
2022-10-05T22:45:19.921Z,100.00
2022-10-05T22:50:22.851Z,100.00
2022-10-05T22:55:25.995Z,100.00
2022-10-05T23:00:53.476Z,100.00
2022-10-05T23:05:57.680Z,100.00
2022-10-05T23:11:04.668Z,100.00
2022-10-05T23:16:11.045Z,100.00
2022-10-05T23:21:14.018Z,100.00
2022-10-05T23:26:17.771Z,100.00
2022-10-05T23:31:25.384Z,100.00
2022-10-05T23:36:32.305Z,100.00
2022-10-05T23:41:35.504Z,100.00
2022-10-05T23:46:40.289Z,100.00
2022-10-05T23:51:44.912Z,100.00
2022-10-05T23:56:47.961Z,100.00
